Time;durP1;ratioP1;P1;durP2;ratioP2;P2;SDS_P1;SDS_P2;PMS_P1;PMS_P2;Temp;Humidity;BMP_temperature;BMP_pressure;BME280_temperature;BME280_humidity;BME280_pressure;Samples;Min_cycle;Max_cycle;Signal;HPM_P1;HPM_P2
2023/06/26 00:02:08;;;;;;;;;;;27.20;42.80;;;27.37;29.95;98557.81;5024473;27;119467;-76
2023/06/26 00:04:35;;;;;;;;;;;27.10;42.90;;;27.35;30.03;98563.09;5026359;27;117775;-77
2023/06/26 00:07:04;;;;;;;;;;;27.10;43.00;;;27.29;30.46;98560.75;5008099;28;123329;-76
2023/06/26 00:09:30;;;;;;;;;;;27.10;43.00;;;27.26;30.51;98555.16;5021735;27;123955;-76
2023/06/26 00:11:57;;;;;;;;;;;27.00;43.00;;;27.22;30.14;98560.88;5003776;28;118873;-76
2023/06/26 00:14:23;;;;;;;;;;;27.00;43.10;;;27.18;30.58;98560.13;5022407;27;119701;-77
2023/06/26 00:16:49;;;;;;;;;;;27.00;43.30;;;27.13;30.64;98560.59;4992516;28;123677;-76
2023/06/26 00:19:15;;;;;;;;;;;26.90;43.30;;;27.07;30.92;98559.47;5017766;27;124572;-76
2023/06/26 00:21:46;;;;;;;;;;;26.90;43.30;;;27.03;30.38;98564.44;5022244;27;119810;-76
2023/06/26 00:24:13;;;;;;;;;;;26.90;43.40;;;26.98;30.76;98567.75;4997059;28;118386;-76
2023/06/26 00:26:42;;;;;;;;;;;26.80;43.60;;;26.94;31.13;98562.09;5012811;27;123251;-76
2023/06/26 00:29:10;;;;;;;;;;;26.80;43.80;;;26.93;30.97;98562.56;5015813;27;123939;-76
2023/06/26 00:31:37;;;;;;;;;;;26.70;43.80;;;26.90;30.81;98558.53;5023795;27;119840;-76
2023/06/26 00:34:04;;;;;;;;;;;26.70;43.90;;;26.88;30.90;98561.78;5028887;27;118777;-76
2023/06/26 00:36:30;;;;;;;;;;;26.60;44.00;;;26.85;31.38;98554.16;5017861;27;124199;-77
2023/06/26 00:38:56;;;;;;;;;;;26.60;44.10;;;26.83;30.88;98556.59;5020136;27;124330;-76
2023/06/26 00:41:22;;;;;;;;;;;26.60;44.20;;;26.82;30.97;98555.00;5020551;27;120644;-76
2023/06/26 00:43:49;;;;;;;;;;;26.60;44.90;;;26.81;30.98;98552.59;5026028;27;118602;-76
2023/06/26 00:46:15;;;;;;;;;;;26.60;44.30;;;26.80;31.29;98551.78;5018325;27;123483;-76
2023/06/26 00:48:43;;;;;;;;;;;26.50;44.30;;;26.79;31.12;98553.03;5040592;27;124507;-76
2023/06/26 00:51:10;;;;;;;;;;;26.50;44.40;;;26.78;31.25;98557.09;5026680;28;118810;-76
2023/06/26 00:53:36;;;;;;;;;;;26.50;44.50;;;26.75;31.45;98552.28;5027937;27;118767;-76
2023/06/26 00:56:03;;;;;;;;;;;26.50;44.50;;;26.74;31.36;98553.50;5041525;27;124217;-76
2023/06/26 00:58:29;;;;;;;;;;;26.50;44.60;;;26.74;31.55;98559.19;5026589;27;124162;-77
2023/06/26 01:00:56;;;;;;;;;;;26.50;44.70;;;26.72;31.22;98546.66;5027343;27;119640;-76
2023/06/26 01:03:26;;;;;;;;;;;26.50;44.80;;;26.69;31.42;98551.16;5017507;28;117238;-76
2023/06/26 01:05:52;;;;;;;;;;;26.40;44.80;;;26.67;31.54;98550.78;5028661;27;124461;-76
2023/06/26 01:08:19;;;;;;;;;;;26.40;44.90;;;26.66;31.63;98546.34;5027193;28;124005;-76
2023/06/26 01:10:48;;;;;;;;;;;26.40;44.90;;;26.62;31.70;98545.59;5012489;27;119652;-76
2023/06/26 01:13:15;;;;;;;;;;;26.30;44.90;;;26.59;31.47;98541.56;5025843;28;118787;-76
2023/06/26 01:15:41;;;;;;;;;;;26.30;44.90;;;26.58;32.04;98542.81;5028055;27;124793;-76
2023/06/26 01:18:11;;;;;;;;;;;26.30;45.10;;;26.55;31.61;98548.53;5025730;27;123923;-76
2023/06/26 01:20:42;;;;;;;;;;;26.30;45.10;;;26.54;31.83;98544.09;5027120;27;119547;-76
2023/06/26 01:23:20;;;;;;;;;;;26.30;45.20;;;26.53;31.59;98542.50;5019128;27;118821;-76
2023/06/26 01:26:05;;;;;;;;;;;26.30;45.30;;;26.50;31.75;98534.81;5028865;27;123616;-76
2023/06/26 01:28:32;;;;;;;;;;;26.30;45.40;;;26.49;32.25;98536.03;5022129;27;124224;-77
2023/06/26 01:30:59;;;;;;;;;;;26.20;45.70;;;26.48;32.36;98540.09;5010758;28;119597;-76
2023/06/26 01:33:25;;;;;;;;;;;26.20;45.80;;;26.45;32.33;98541.75;5016493;27;119712;-76
2023/06/26 01:35:52;;;;;;;;;;;26.20;45.70;;;26.43;32.17;98539.34;5017564;27;124562;-75
2023/06/26 01:38:20;;;;;;;;;;;26.20;45.70;;;26.40;31.86;98533.72;5008989;27;123806;-75
2023/06/26 01:40:47;;;;;;;;;;;26.10;45.60;;;26.38;32.03;98530.50;5019502;27;120131;-75
2023/06/26 01:43:27;;;;;;;;;;;26.10;45.70;;;26.35;32.15;98529.31;5009325;27;118839;-75
2023/06/26 01:45:59;;;;;;;;;;;26.10;45.70;;;26.31;32.08;98520.09;5029239;27;123872;-75
2023/06/26 01:48:30;;;;;;;;;;;26.10;45.90;;;26.28;32.38;98523.78;5017182;28;124017;-75
2023/06/26 01:50:58;;;;;;;;;;;26.00;45.90;;;26.27;32.73;98525.00;5004646;28;118386;-75
2023/06/26 01:53:25;;;;;;;;;;;26.00;46.00;;;26.29;32.32;98528.22;5019472;27;118640;-74
2023/06/26 01:56:07;;;;;;;;;;;26.00;46.10;;;26.26;32.33;98531.09;5026045;27;124180;-75
2023/06/26 01:58:40;;;;;;;;;;;26.00;46.20;;;26.27;32.68;98518.53;5021096;27;124055;-75
2023/06/26 02:01:07;;;;;;;;;;;26.00;46.50;;;26.26;32.75;98528.25;5022113;27;119546;-75
2023/06/26 02:03:35;;;;;;;;;;;26.00;46.70;;;26.20;32.86;98522.28;5015683;27;118765;-76
2023/06/26 02:06:01;;;;;;;;;;;25.90;46.90;;;26.17;33.50;98525.97;5026471;27;124207;-76
2023/06/26 02:08:30;;;;;;;;;;;25.90;47.20;;;26.13;33.28;98531.66;5027563;27;123744;-76
2023/06/26 02:10:57;;;;;;;;;;;25.90;47.40;;;26.09;33.95;98525.25;5031636;27;119535;-76
2023/06/26 02:13:23;;;;;;;;;;;25.90;47.60;;;26.06;34.06;98530.94;5035593;27;118512;-76
2023/06/26 02:15:51;;;;;;;;;;;25.80;47.70;;;26.02;33.98;98521.69;5027711;27;123204;-76
2023/06/26 02:18:18;;;;;;;;;;;25.80;47.80;;;26.00;33.94;98519.28;5026487;27;123762;-75
2023/06/26 02:20:44;;;;;;;;;;;25.80;48.10;;;25.97;33.71;98525.78;5024852;27;120253;-76
2023/06/26 02:23:10;;;;;;;;;;;25.70;48.10;;;25.92;34.05;98521.38;5026501;27;119411;-75
2023/06/26 02:25:36;;;;;;;;;;;25.70;48.00;;;25.89;34.04;98527.91;5025887;27;124063;-76
2023/06/26 02:28:03;;;;;;;;;;;25.70;48.10;;;25.87;33.96;98523.88;5024436;27;123928;-75
2023/06/26 02:30:31;;;;;;;;;;;25.70;48.20;;;25.85;33.92;98535.66;5025979;27;118586;-76
2023/06/26 02:32:58;;;;;;;;;;;25.60;48.20;;;25.83;34.24;98534.44;5024254;27;118552;-76
2023/06/26 02:35:24;;;;;;;;;;;25.60;48.30;;;25.73;34.13;98522.78;5024884;27;124187;-76
2023/06/26 02:37:50;;;;;;;;;;;25.50;48.40;;;25.65;34.25;98531.78;5024784;27;123881;-75
2023/06/26 02:40:16;;;;;;;;;;;25.50;48.40;;;25.57;34.39;98526.19;5026497;27;119541;-76
2023/06/26 02:42:42;;;;;;;;;;;25.40;48.40;;;25.51;34.59;98529.91;5027995;27;117776;-75
2023/06/26 02:45:29;;;;;;;;;;;25.40;48.30;;;25.45;34.14;98529.56;5025172;27;129214;-75
2023/06/26 02:47:55;;;;;;;;;;;25.30;48.30;;;25.38;34.13;98523.97;4986313;28;123731;-75
2023/06/26 02:50:22;;;;;;;;;;;25.30;48.40;;;25.37;34.06;98528.03;4968360;28;118465;-76
2023/06/26 02:52:52;;;;;;;;;;;25.20;48.40;;;25.34;34.26;98520.41;4985133;28;119127;-76
2023/06/26 02:55:19;;;;;;;;;;;25.20;48.50;;;25.29;34.68;98523.66;4983002;28;124281;-76
2023/06/26 02:57:46;;;;;;;;;;;25.10;48.60;;;25.26;34.67;98524.50;4966333;28;124488;-75
2023/06/26 03:00:15;;;;;;;;;;;25.10;48.60;;;25.26;34.58;98524.50;4986261;28;119263;-75
2023/06/26 03:02:41;;;;;;;;;;;25.10;48.70;;;25.27;34.80;98523.28;4985512;28;118849;-76
2023/06/26 03:05:10;;;;;;;;;;;25.10;48.90;;;25.25;34.36;98528.53;4969145;28;123815;-75
2023/06/26 03:07:36;;;;;;;;;;;25.00;48.90;;;25.21;34.74;98522.94;4985633;28;124030;-75
2023/06/26 03:10:05;;;;;;;;;;;25.00;49.10;;;25.16;34.89;98523.38;4967793;28;119786;-75
2023/06/26 03:12:33;;;;;;;;;;;25.00;49.20;;;25.11;35.06;98530.25;4981641;28;120345;-76
2023/06/26 03:15:04;;;;;;;;;;;24.90;49.10;;;25.07;35.19;98526.66;4967852;28;124191;-76
2023/06/26 03:17:30;;;;;;;;;;;24.90;49.60;;;25.06;34.92;98521.41;4985879;28;123656;-76
2023/06/26 03:19:56;;;;;;;;;;;24.90;49.50;;;25.08;35.00;98524.63;4982971;28;119624;-76
2023/06/26 03:22:23;;;;;;;;;;;24.90;49.60;;;25.09;35.38;98520.56;4967685;28;118502;-76
2023/06/26 03:24:49;;;;;;;;;;;24.90;49.80;;;25.11;35.15;98530.25;4995713;27;124596;-76
2023/06/26 03:27:18;;;;;;;;;;;24.80;49.80;;;25.13;35.31;98527.81;5015201;27;124574;-75
2023/06/26 03:29:44;;;;;;;;;;;24.90;50.00;;;25.13;35.60;98529.84;5023973;27;119509;-76
2023/06/26 03:32:12;;;;;;;;;;;24.90;50.10;;;25.14;35.63;98517.31;5024916;28;118600;-75
2023/06/26 03:34:39;;;;;;;;;;;24.90;50.30;;;25.13;35.52;98527.81;5027174;27;124084;-76
2023/06/26 03:37:07;;;;;;;;;;;24.90;50.40;;;25.12;35.68;98519.75;5018842;27;123952;-75
2023/06/26 03:39:33;;;;;;;;;;;24.80;50.40;;;25.12;35.54;98526.22;5016086;27;120122;-75
2023/06/26 03:42:02;;;;;;;;;;;24.80;50.50;;;25.12;35.71;98526.22;5024977;27;119045;-75
2023/06/26 03:44:28;;;;;;;;;;;24.90;50.70;;;25.13;35.60;98532.66;5025028;27;124342;-75
2023/06/26 03:46:55;;;;;;;;;;;24.80;50.80;;;25.13;35.94;98527.00;5022864;27;123944;-75
2023/06/26 03:49:24;;;;;;;;;;;24.80;50.80;;;25.14;35.66;98522.94;5021564;27;119240;-75
2023/06/26 03:51:50;;;;;;;;;;;25.50;51.40;;;25.17;35.69;98530.63;5024329;27;118965;-75
2023/06/26 03:54:16;;;;;;;;;;;24.90;51.00;;;25.23;35.90;98533.84;5002011;28;124191;-75
2023/06/26 03:56:43;;;;;;;;;;;24.90;51.00;;;25.27;35.68;98531.75;5020970;27;122842;-76
2023/06/26 03:59:14;;;;;;;;;;;24.90;51.10;;;25.30;35.92;98530.94;5025441;27;120964;-75
2023/06/26 04:01:40;;;;;;;;;;;24.90;51.20;;;25.32;35.67;98534.16;5018346;27;119389;-75
2023/06/26 04:04:06;;;;;;;;;;;24.90;51.20;;;25.38;36.06;98532.47;5024099;27;124632;-75
2023/06/26 04:06:33;;;;;;;;;;;24.90;51.30;;;25.47;35.79;98534.78;5027791;27;123880;-75
2023/06/26 04:09:02;;;;;;;;;;;25.00;51.50;;;25.50;35.68;98531.94;5037248;27;120115;-75
2023/06/26 04:11:28;;;;;;;;;;;25.10;51.50;;;25.53;36.04;98533.94;5027491;27;118024;-75
2023/06/26 04:13:55;;;;;;;;;;;25.10;51.50;;;25.55;36.05;98539.19;5042579;27;124468;-75
2023/06/26 04:16:24;;;;;;;;;;;25.10;51.60;;;25.55;36.01;98539.19;5030515;27;123387;-75
2023/06/26 04:18:56;;;;;;;;;;;25.10;51.70;;;25.55;36.43;98545.63;5028408;27;119391;-75
2023/06/26 04:21:24;;;;;;;;;;;25.10;51.90;;;25.56;36.36;98537.94;5037556;27;119119;-76
2023/06/26 04:23:51;;;;;;;;;;;25.10;52.00;;;25.55;36.05;98542.81;5024862;27;124378;-75
2023/06/26 04:26:17;;;;;;;;;;;25.20;52.00;;;25.54;36.29;98544.00;5037370;27;124625;-76
2023/06/26 04:28:43;;;;;;;;;;;25.20;51.90;;;25.55;36.43;98544.84;5039864;27;119994;-75
2023/06/26 04:31:09;;;;;;;;;;;25.20;51.90;;;25.54;36.38;98546.84;5030720;27;118668;-75
2023/06/26 04:33:37;;;;;;;;;;;25.20;52.10;;;25.52;36.43;98549.31;5046909;27;125308;-76
2023/06/26 04:36:08;;;;;;;;;;;25.20;52.10;;;25.50;36.56;98545.28;5041010;27;124142;-76
2023/06/26 04:38:35;;;;;;;;;;;25.20;52.10;;;25.49;36.25;98540.84;5013306;28;119994;-76
2023/06/26 04:41:01;;;;;;;;;;;25.20;52.20;;;25.48;36.68;98540.03;5027136;27;119278;-76
2023/06/26 04:43:28;;;;;;;;;;;25.10;52.30;;;25.47;37.04;98535.63;5010430;28;123683;-75
2023/06/26 04:45:54;;;;;;;;;;;25.20;52.80;;;25.45;37.18;98537.25;5038684;27;124505;-76
2023/06/26 04:48:21;;;;;;;;;;;25.10;52.90;;;25.41;37.11;98540.09;5008643;27;119632;-76
2023/06/26 04:50:53;;;;;;;;;;;25.10;53.10;;;25.42;37.13;98540.94;5028268;27;119755;-75
2023/06/26 04:53:25;;;;;;;;;;;25.10;53.30;;;25.40;37.20;98541.34;5016165;27;124243;-75
2023/06/26 04:55:52;;;;;;;;;;;25.10;53.30;;;25.42;37.51;98540.94;5026421;27;124120;-75
2023/06/26 04:58:19;;;;;;;;;;;25.10;53.40;;;25.40;37.41;98532.84;5026164;27;120158;-75
2023/06/26 05:00:45;;;;;;;;;;;25.10;53.80;;;25.35;37.68;98538.97;5026698;28;118037;-75
2023/06/26 05:03:13;;;;;;;;;;;25.10;53.70;;;25.33;37.30;98544.22;5026612;27;124478;-75
2023/06/26 05:05:39;;;;;;;;;;;25.00;53.60;;;25.32;37.55;98539.81;5012044;27;123928;-75
2023/06/26 05:08:23;;;;;;;;;;;25.10;53.70;;;25.34;37.68;98534.53;5028259;27;119410;-76
2023/06/26 05:10:50;;;;;;;;;;;25.00;53.80;;;25.35;37.46;98525.63;5021110;27;119434;-76
2023/06/26 05:13:19;;;;;;;;;;;25.00;53.70;;;25.40;37.66;98537.72;5025082;27;124518;-79
2023/06/26 05:15:49;;;;;;;;;;;25.10;53.80;;;25.41;37.72;98537.28;5028240;27;123452;-75
2023/06/26 05:18:15;;;;;;;;;;;25.10;53.80;;;25.48;37.45;98533.59;5019994;28;119734;-75
2023/06/26 05:20:42;;;;;;;;;;;25.10;53.90;;;25.55;37.42;98533.53;5021951;27;118961;-76
2023/06/26 05:23:11;;;;;;;;;;;25.10;53.90;;;25.60;37.28;98532.25;5034077;27;122921;-75
2023/06/26 05:25:37;;;;;;;;;;;25.20;54.10;;;25.65;37.09;98534.63;5017126;27;123825;-76
2023/06/26 05:28:05;;;;;;;;;;;25.20;53.90;;;25.72;37.34;98540.22;5011240;27;118357;-83
2023/06/26 05:30:34;;;;;;;;;;;25.30;54.00;;;25.80;36.92;98536.06;5022346;27;119306;-77
2023/06/26 05:33:01;;;;;;;;;;;25.30;53.90;;;25.88;36.82;98531.97;5019774;27;124296;-78
2023/06/26 05:35:29;;;;;;;;;;;25.40;53.90;;;25.98;36.79;98535.91;5022300;28;124649;-77
2023/06/26 05:37:57;;;;;;;;;;;25.50;53.90;;;26.06;36.63;98533.75;5018958;27;120383;-77
2023/06/26 05:40:24;;;;;;;;;;;25.50;53.80;;;26.13;36.51;98539.34;5026431;27;119049;-78
2023/06/26 05:42:50;;;;;;;;;;;25.60;53.90;;;26.17;36.65;98537.28;5008847;27;123939;-77
2023/06/26 05:45:16;;;;;;;;;;;25.60;53.80;;;26.21;36.45;98541.66;5017934;27;123622;-78
2023/06/26 05:47:43;;;;;;;;;;;25.70;53.80;;;26.28;36.56;98548.47;5027836;27;119407;-77
2023/06/26 05:50:10;;;;;;;;;;;25.70;53.80;;;26.36;36.40;98544.31;5017111;27;117898;-77
2023/06/26 05:52:36;;;;;;;;;;;25.80;53.80;;;26.40;36.79;98540.19;5025890;27;123753;-77
2023/06/26 05:55:03;;;;;;;;;;;25.80;53.70;;;26.45;36.31;98542.56;5010283;27;122965;-77
2023/06/26 05:57:30;;;;;;;;;;;25.90;53.70;;;26.55;36.35;98540.03;5006513;27;119151;-78
2023/06/26 05:59:56;;;;;;;;;;;26.00;53.80;;;26.63;36.43;98541.53;5037173;27;118870;-77
2023/06/26 06:02:23;;;;;;;;;;;26.10;53.80;;;26.70;36.43;98538.59;5031733;27;123100;-79
2023/06/26 06:04:49;;;;;;;;;;;26.10;53.70;;;26.72;36.10;98544.63;5024942;27;124686;-76
2023/06/26 06:07:15;;;;;;;;;;;26.20;53.70;;;26.78;36.39;98547.78;5026019;27;119253;-79
2023/06/26 06:09:41;;;;;;;;;;;26.20;53.60;;;26.82;36.23;98538.00;5030974;27;119203;-79
2023/06/26 06:12:08;;;;;;;;;;;26.30;53.60;;;26.89;36.32;98531.41;5035514;27;124647;-79
2023/06/26 06:14:34;;;;;;;;;;;26.30;53.50;;;26.96;36.26;98536.19;5039833;27;124593;-79
2023/06/26 06:17:01;;;;;;;;;;;26.40;53.60;;;27.06;35.84;98535.19;5026434;27;120005;-79
2023/06/26 06:19:27;;;;;;;;;;;26.50;53.60;;;27.13;36.24;98534.25;5020255;27;118267;-79
2023/06/26 06:21:54;;;;;;;;;;;26.50;53.50;;;27.20;35.60;98534.97;5031126;27;125551;-79
2023/06/26 06:24:20;;;;;;;;;;;26.60;53.50;;;27.22;36.05;98538.19;5031084;27;124388;-80
2023/06/26 06:26:46;;;;;;;;;;;26.60;53.50;;;27.26;35.88;98532.44;5023265;27;122513;-80
2023/06/26 06:29:15;;;;;;;;;;;26.70;53.50;;;27.29;35.59;98535.22;5016684;27;119738;-80
2023/06/26 06:31:41;;;;;;;;;;;26.70;53.50;;;27.33;35.66;98538.00;5031690;27;124617;-81
2023/06/26 06:34:08;;;;;;;;;;;26.70;53.30;;;27.36;35.79;98533.50;5030219;27;123907;-79
2023/06/26 06:36:37;;;;;;;;;;;26.80;53.40;;;27.37;36.16;98535.91;5019153;27;120235;-80
2023/06/26 06:39:05;;;;;;;;;;;26.80;53.40;;;27.39;36.03;98535.47;5021545;28;118425;-79
2023/06/26 06:41:31;;;;;;;;;;;26.80;53.40;;;27.44;35.60;98538.63;5015622;27;124622;-80
2023/06/26 06:43:57;;;;;;;;;;;26.90;53.40;;;27.51;36.00;98532.00;5022344;27;124452;-82
2023/06/26 06:46:26;;;;;;;;;;;26.90;53.30;;;27.57;35.43;98541.63;5026653;27;119960;-84
2023/06/26 06:48:53;;;;;;;;;;;27.00;53.40;;;27.59;35.68;98547.66;5028707;27;119256;-82
2023/06/26 06:51:21;;;;;;;;;;;27.00;53.40;;;27.58;35.77;98545.25;5012016;27;124180;-82
2023/06/26 06:53:48;;;;;;;;;;;27.00;53.50;;;27.57;35.70;98547.31;5012661;27;124024;-80
2023/06/26 06:56:14;;;;;;;;;;;27.00;53.40;;;27.61;35.99;98545.19;5020921;28;119672;-81
2023/06/26 06:58:42;;;;;;;;;;;27.00;53.40;;;27.67;35.83;98539.81;5023549;27;118283;-84
2023/06/26 07:01:11;;;;;;;;;;;27.10;54.10;;;27.74;35.81;98545.38;5018603;27;124600;-81
2023/06/26 07:03:37;;;;;;;;;;;27.10;53.50;;;27.81;35.51;98547.28;5035620;27;124880;-85
2023/06/26 07:06:06;;;;;;;;;;;27.20;53.40;;;27.89;35.43;98546.72;5037587;27;119648;-81
2023/06/26 07:08:32;;;;;;;;;;;27.30;53.40;;;28.00;35.41;98545.72;5032565;27;119630;-82
2023/06/26 07:10:58;;;;;;;;;;;27.40;53.40;;;28.11;35.13;98547.09;5025071;27;124282;-83
2023/06/26 07:13:25;;;;;;;;;;;27.50;53.30;;;28.22;35.04;98544.03;5032131;27;123025;-81
2023/06/26 07:15:51;;;;;;;;;;;27.60;53.30;;;28.29;35.14;98546.72;5021988;27;120354;-82
2023/06/26 07:18:17;;;;;;;;;;;27.60;53.10;;;28.35;34.85;98539.28;5016656;27;119915;-80
2023/06/26 07:20:43;;;;;;;;;;;27.70;52.90;;;28.36;34.68;98540.06;5008554;27;124292;-80
2023/06/26 07:23:12;;;;;;;;;;;27.70;52.70;;;28.38;34.88;98537.59;5011514;27;123118;-78
2023/06/26 07:25:38;;;;;;;;;;;27.80;52.70;;;28.42;34.52;98541.97;5032763;27;118482;-77
2023/06/26 07:28:10;;;;;;;;;;;27.80;52.60;;;28.49;34.66;98549.56;4996624;28;117911;-77
2023/06/26 07:30:37;;;;;;;;;;;27.80;52.40;;;28.51;34.55;98535.72;5015275;27;123975;-78
2023/06/26 07:33:03;;;;;;;;;;;27.80;52.30;;;28.52;34.52;98548.66;5009430;27;123500;-77
2023/06/26 07:35:29;;;;;;;;;;;27.90;52.50;;;28.58;34.88;98541.22;5020884;27;119459;-77
2023/06/26 07:37:55;;;;;;;;;;;27.90;52.40;;;28.67;34.39;98548.34;5020176;28;117844;-77
2023/06/26 07:40:22;;;;;;;;;;;28.00;52.30;;;28.74;34.15;98542.50;5017535;27;124487;-78
2023/06/26 07:42:48;;;;;;;;;;;28.10;52.20;;;28.79;34.26;98539.13;5010552;28;123392;-77
2023/06/26 07:45:15;;;;;;;;;;;28.10;52.10;;;28.85;34.13;98543.88;5026814;27;118651;-78
2023/06/26 07:47:43;;;;;;;;;;;28.10;52.00;;;28.87;34.29;98529.19;5014374;27;118638;-78
2023/06/26 07:50:10;;;;;;;;;;;28.20;51.90;;;28.90;34.00;98542.50;5009038;28;124077;-78
2023/06/26 07:52:36;;;;;;;;;;;28.20;51.80;;;28.97;33.97;98545.19;5013050;28;124180;-78
2023/06/26 07:55:05;;;;;;;;;;;28.30;51.70;;;29.04;33.71;98532.84;5019721;27;119374;-78
2023/06/26 07:57:32;;;;;;;;;;;28.40;51.50;;;29.12;33.60;98534.28;5020509;27;117698;-78
2023/06/26 07:59:58;;;;;;;;;;;28.50;51.40;;;29.23;33.33;98536.84;5022646;27;124631;-77
2023/06/26 08:02:29;;;;;;;;;;;28.60;51.20;;;29.32;33.03;98531.34;4999470;27;123154;-78
2023/06/26 08:05:00;;;;;;;;;;;28.60;50.90;;;29.38;33.03;98532.41;5033118;27;120831;-78
2023/06/26 08:07:26;;;;;;;;;;;28.70;50.60;;;29.43;33.07;98526.16;5037514;27;119818;-79
2023/06/26 08:09:52;;;;;;;;;;;28.80;50.60;;;29.52;32.68;98517.78;5028173;27;124108;-79
2023/06/26 08:12:21;;;;;;;;;;;28.90;50.40;;;29.61;32.64;98510.66;5022714;27;124419;-79
2023/06/26 08:14:47;;;;;;;;;;;28.90;50.20;;;29.65;32.49;98512.19;5030832;27;119896;-78
2023/06/26 08:17:14;;;;;;;;;;;29.00;50.20;;;29.71;32.20;98521.78;5016433;27;118557;-78
2023/06/26 08:19:40;;;;;;;;;;;29.00;49.80;;;29.80;32.31;98526.84;5012681;27;124162;-79
2023/06/26 08:22:06;;;;;;;;;;;29.10;49.80;;;29.88;32.37;98519.69;5019889;27;123807;-79
2023/06/26 08:24:35;;;;;;;;;;;29.20;49.70;;;29.95;31.61;98522.31;5002073;27;118304;-79
2023/06/26 08:27:01;;;;;;;;;;;28.70;48.90;;;29.98;31.69;98520.63;5023366;28;118685;-78
2023/06/26 08:29:28;;;;;;;;;;;29.40;49.30;;;30.02;31.81;98511.97;5016298;27;124618;-79
2023/06/26 08:31:54;;;;;;;;;;;29.50;49.10;;;30.10;31.41;98513.38;4996580;28;123456;-79
2023/06/26 08:34:20;;;;;;;;;;;29.50;49.00;;;30.19;31.38;98513.50;5020226;27;119443;-78
2023/06/26 08:36:46;;;;;;;;;;;29.60;48.90;;;30.26;30.72;98513.31;5030623;27;119835;-78
2023/06/26 08:39:13;;;;;;;;;;;29.70;48.10;;;30.32;30.44;98516.41;5017359;27;124094;-77
2023/06/26 08:41:39;;;;;;;;;;;29.70;47.70;;;30.38;30.72;98509.66;5015478;27;123780;-77
2023/06/26 08:44:10;;;;;;;;;;;29.80;47.40;;;30.44;30.26;98507.09;5016618;27;119534;-77
2023/06/26 08:46:37;;;;;;;;;;;29.80;47.10;;;30.47;29.95;98516.78;5018443;27;118779;-77
2023/06/26 08:49:19;;;;;;;;;;;29.90;46.90;;;30.49;30.22;98514.25;5021598;27;123457;-77
2023/06/26 08:51:51;;;;;;;;;;;29.90;46.70;;;30.53;29.78;98512.09;5022685;27;124116;-76
2023/06/26 08:54:20;;;;;;;;;;;30.00;46.70;;;30.58;29.96;98506.63;5015071;27;120572;-76
2023/06/26 08:56:49;;;;;;;;;;;30.00;46.60;;;30.65;29.66;98505.59;4999480;27;118922;-77
2023/06/26 08:59:16;;;;;;;;;;;30.10;46.50;;;30.72;29.72;98505.38;5021463;27;123296;-75
2023/06/26 09:01:45;;;;;;;;;;;30.20;46.50;;;30.76;29.27;98506.06;5007329;28;123112;-76
2023/06/26 09:04:11;;;;;;;;;;;30.30;46.00;;;30.80;29.61;98503.91;5009122;27;118639;-77
2023/06/26 09:06:39;;;;;;;;;;;30.30;45.90;;;30.85;29.27;98505.41;5014164;28;118850;-77
2023/06/26 09:09:05;;;;;;;;;;;30.30;45.70;;;30.90;29.30;98501.97;5010720;28;123454;-77
2023/06/26 09:11:31;;;;;;;;;;;30.40;45.80;;;30.97;29.08;98515.19;5009522;28;123762;-77
2023/06/26 09:14:04;;;;;;;;;;;30.40;45.80;;;31.02;28.93;98512.56;5017454;27;119425;-76
2023/06/26 09:16:33;;;;;;;;;;;30.50;45.40;;;31.04;29.07;98503.56;5011600;27;118889;-77
2023/06/26 09:18:59;;;;;;;;;;;30.50;44.80;;;31.05;28.76;98508.00;5007138;28;123297;-77
2023/06/26 09:21:26;;;;;;;;;;;30.50;44.90;;;31.10;28.67;98501.72;5029065;27;124218;-77
2023/06/26 09:23:52;;;;;;;;;;;30.60;45.00;;;31.15;28.76;98503.97;5022899;27;120181;-77
2023/06/26 09:26:19;;;;;;;;;;;30.60;44.90;;;31.19;28.68;98501.81;5030794;27;118666;-76
2023/06/26 09:28:45;;;;;;;;;;;30.70;44.80;;;31.23;29.11;98491.06;5020912;27;124560;-76
2023/06/26 09:31:14;;;;;;;;;;;30.70;44.90;;;31.30;28.73;98489.22;5016789;27;123685;-76
2023/06/26 09:33:42;;;;;;;;;;;30.70;44.70;;;31.33;28.92;98496.88;5005190;28;118516;-76
2023/06/26 09:36:20;;;;;;;;;;;30.80;44.60;;;31.37;28.14;98497.56;5010218;27;118933;-76
2023/06/26 09:38:46;;;;;;;;;;;30.90;44.40;;;31.38;27.90;98491.41;5003885;27;123738;-77
2023/06/26 09:41:17;;;;;;;;;;;30.90;43.80;;;31.40;28.30;98488.88;5010544;27;124572;-76
2023/06/26 09:43:50;;;;;;;;;;;30.90;43.90;;;31.46;28.04;98491.94;5012185;27;120312;-76
2023/06/26 09:46:27;;;;;;;;;;;31.00;43.80;;;31.54;27.63;98503.91;5025835;27;119900;-77
2023/06/26 09:49:04;;;;;;;;;;;31.10;43.80;;;31.58;27.47;98491.09;5015158;27;123229;-77
2023/06/26 09:51:32;;;;;;;;;;;31.10;43.50;;;31.62;27.48;98491.78;5021063;27;124085;-77
2023/06/26 09:54:02;;;;;;;;;;;31.10;43.40;;;31.67;27.55;98494.00;5021406;27;119481;-77
2023/06/26 09:56:29;;;;;;;;;;;31.20;43.60;;;31.68;27.77;98483.41;5033829;27;119535;-78
2023/06/26 09:58:57;;;;;;;;;;;31.20;43.70;;;31.70;28.16;98486.56;5012486;27;124361;-77
2023/06/26 10:01:24;;;;;;;;;;;31.20;43.80;;;31.74;28.35;98484.41;5019754;27;124540;-77
2023/06/26 10:03:51;;;;;;;;;;;31.20;43.90;;;31.76;28.01;98499.03;5028761;27;119356;-77
2023/06/26 10:06:24;;;;;;;;;;;31.20;44.10;;;31.82;27.98;98502.09;5000137;28;119038;-77
2023/06/26 10:08:51;;;;;;;;;;;31.30;44.30;;;31.84;28.33;98497.50;5010003;27;124104;-77
2023/06/26 10:11:21;;;;;;;;;;;31.30;44.30;;;31.91;28.59;98490.72;5016088;27;123144;-76
2023/06/26 10:13:51;;;;;;;;;;;31.40;44.40;;;31.92;28.24;98486.63;5019254;27;120082;-77
2023/06/26 10:16:24;;;;;;;;;;;31.50;44.40;;;31.97;28.25;98494.59;5006455;27;118935;-77
2023/06/26 10:18:53;;;;;;;;;;;31.50;44.40;;;32.04;28.60;98500.03;5016347;27;124113;-77
2023/06/26 10:21:21;;;;;;;;;;;31.50;44.60;;;32.03;28.44;98487.03;5021169;27;124331;-77
2023/06/26 10:23:48;;;;;;;;;;;31.60;44.70;;;31.97;28.92;98486.00;5024087;27;119837;-77
2023/06/26 10:26:14;;;;;;;;;;;31.60;44.80;;;31.89;29.42;98481.78;5006008;28;118082;-77
2023/06/26 10:28:45;;;;;;;;;;;31.60;44.90;;;31.86;29.04;98482.72;5006546;28;123505;-77
2023/06/26 10:31:11;;;;;;;;;;;31.50;45.00;;;31.85;29.37;98481.16;5014151;27;122913;-76
2023/06/26 10:33:40;;;;;;;;;;;31.50;45.60;;;31.83;29.10;98500.81;5014614;27;120802;-77
2023/06/26 10:36:19;;;;;;;;;;;31.40;45.00;;;31.78;28.83;98493.63;5010321;28;119374;-77
2023/06/26 10:38:50;;;;;;;;;;;31.50;45.00;;;31.77;29.19;98502.69;5011539;27;124113;-77
2023/06/26 10:41:20;;;;;;;;;;;31.40;45.20;;;31.76;29.83;98512.50;5021509;27;123992;-77
2023/06/26 10:43:49;;;;;;;;;;;31.40;45.50;;;31.71;29.90;98524.53;5027663;27;119838;-74
2023/06/26 10:46:15;;;;;;;;;;;32.20;46.50;;;31.65;29.92;98518.59;5028494;27;118891;-75
2023/06/26 10:48:56;;;;;;;;;;;31.30;46.00;;;31.60;28.88;98516.34;5016144;27;125363;-76
2023/06/26 10:51:26;;;;;;;;;;;31.20;45.20;;;31.58;29.21;98522.50;5020731;27;124485;-77
2023/06/26 10:53:56;;;;;;;;;;;31.20;45.10;;;31.59;28.94;98526.94;5007428;27;119450;-78
2023/06/26 10:56:42;;;;;;;;;;;31.20;45.20;;;31.55;29.46;98520.59;5014655;27;119087;-77
2023/06/26 10:59:18;;;;;;;;;;;31.20;45.30;;;31.53;29.69;98522.31;5016300;27;123392;-76
2023/06/26 11:01:56;;;;;;;;;;;31.10;45.50;;;31.54;29.75;98530.41;5010226;27;124549;-76
2023/06/26 11:04:45;;;;;;;;;;;31.10;45.50;;;31.49;29.72;98519.59;5008946;27;121287;-78
2023/06/26 11:07:22;;;;;;;;;;;31.10;45.50;;;31.52;29.60;98521.50;5021985;27;119388;-76
2023/06/26 11:10:09;;;;;;;;;;;31.10;45.70;;;31.52;29.46;98521.50;5011034;27;124944;-76
2023/06/26 11:12:48;;;;;;;;;;;31.20;45.80;;;31.59;29.33;98515.53;5020014;27;123198;-76
2023/06/26 11:15:15;;;;;;;;;;;31.20;45.80;;;31.63;29.61;98521.94;5018871;27;118060;-76